createdAt,value
2023-06-13T00:04:44.486Z,51.50
2023-06-13T00:09:47.035Z,59.50
2023-06-13T00:14:51.690Z,59.30
2023-06-13T00:19:55.710Z,53.50
2023-06-13T00:24:58.877Z,59.80
2023-06-13T00:30:01.545Z,65.70
2023-06-13T00:35:07.002Z,60.60
2023-06-13T00:40:10.225Z,51.80
2023-06-13T00:45:23.118Z,55.70
2023-06-13T00:50:37.378Z,61.90
2023-06-13T00:55:40.444Z,49.40
2023-06-13T01:00:45.674Z,48.60
2023-06-13T01:05:49.405Z,61.40
2023-06-13T01:11:01.114Z,58.10
2023-06-13T01:16:16.425Z,53.30
2023-06-13T01:21:21.662Z,60.30
2023-06-13T01:26:36.750Z,56.80
2023-06-13T01:31:41.561Z,56.20
2023-06-13T01:36:48.179Z,63.20
2023-06-13T01:41:50.788Z,48.70
2023-06-13T01:47:07.211Z,60.30
2023-06-13T01:52:22.788Z,53.80
2023-06-13T01:57:45.601Z,53.90
2023-06-13T02:02:49.978Z,51.10
2023-06-13T02:07:58.060Z,53.60
2023-06-13T02:13:01.023Z,46.10
2023-06-13T02:18:04.126Z,47.50
2023-06-13T02:23:06.754Z,52.80
2023-06-13T02:28:10.908Z,59.00
2023-06-13T02:33:14.581Z,49.10
2023-06-13T02:38:17.118Z,54.60
2023-06-13T02:43:22.992Z,47.60
2023-06-13T02:48:27.184Z,56.00
2023-06-13T02:53:30.035Z,50.90
2023-06-13T02:58:32.539Z,55.50
2023-06-13T03:03:35.629Z,47.60
2023-06-13T03:08:39.696Z,50.30
2023-06-13T03:13:46.256Z,46.70
2023-06-13T03:18:49.238Z,55.20
2023-06-13T03:23:51.747Z,55.90
2023-06-13T03:28:54.674Z,48.60
2023-06-13T03:33:57.521Z,60.10
2023-06-13T03:39:00.255Z,50.30
2023-06-13T03:44:03.666Z,46.30
2023-06-13T03:49:06.402Z,53.60
2023-06-13T03:54:08.952Z,49.80
2023-06-13T03:59:11.497Z,53.70
2023-06-13T04:04:14.166Z,49.10
2023-06-13T04:09:16.756Z,54.30
2023-06-13T04:14:19.200Z,49.00
2023-06-13T04:19:24.558Z,47.30
2023-06-13T04:24:27.270Z,51.50
2023-06-13T04:29:29.861Z,56.90
2023-06-13T04:34:32.877Z,47.40
2023-06-13T04:39:38.141Z,50.60
2023-06-13T04:44:41.660Z,52.70
2023-06-13T04:49:46.273Z,46.50
2023-06-13T04:54:48.979Z,56.80
2023-06-13T04:59:51.444Z,56.90
2023-06-13T05:04:54.176Z,48.30
2023-06-13T05:09:56.692Z,40.60
2023-06-13T05:14:59.157Z,41.80
2023-06-13T05:20:01.592Z,39.20
2023-06-13T05:25:04.264Z,42.60
2023-06-13T05:30:13.432Z,42.00
2023-06-13T05:35:16.326Z,40.60
2023-06-13T05:40:19.246Z,37.40
2023-06-13T05:45:22.580Z,37.20
2023-06-13T05:50:25.148Z,39.50
2023-06-13T05:55:28.746Z,34.10
2023-06-13T06:00:32.332Z,38.60
2023-06-13T06:05:36.018Z,38.30
2023-06-13T06:10:38.873Z,37.80
2023-06-13T06:15:41.979Z,36.00
2023-06-13T06:20:44.585Z,36.80
2023-06-13T06:25:47.057Z,35.10
2023-06-13T06:30:50.549Z,33.70
2023-06-13T06:35:54.740Z,34.50
2023-06-13T06:40:57.382Z,36.80
2023-06-13T06:45:59.912Z,37.50
2023-06-13T06:51:02.356Z,37.30
2023-06-13T06:56:05.120Z,38.90
2023-06-13T07:01:08.410Z,41.10
2023-06-13T07:06:12.526Z,39.70
2023-06-13T07:11:15.252Z,37.60
2023-06-13T07:16:17.724Z,39.50
2023-06-13T07:21:20.408Z,40.10
2023-06-13T07:31:27.298Z,35.60
2023-06-13T07:36:29.821Z,37.90
2023-06-13T07:41:37.644Z,36.00
2023-06-13T07:46:40.210Z,33.10
2023-06-13T07:51:42.727Z,35.70
2023-06-13T07:56:45.591Z,33.90
2023-06-13T08:06:51.413Z,32.20
2023-06-13T08:11:54.861Z,32.00
2023-06-13T08:22:00.454Z,30.60
2023-06-13T08:27:03.588Z,28.50
2023-06-13T08:32:06.364Z,31.20
2023-06-13T08:37:09.212Z,28.30
2023-06-13T08:42:12.626Z,28.60
2023-06-13T08:47:36.308Z,29.30
2023-06-13T08:52:43.218Z,31.70
2023-06-13T08:57:48.898Z,30.00
2023-06-13T09:02:53.578Z,31.80
2023-06-13T09:08:09.102Z,31.30
2023-06-13T09:13:17.646Z,31.60
2023-06-13T09:18:20.723Z,29.10
2023-06-13T09:23:23.526Z,30.00
2023-06-13T09:28:37.215Z,29.40
2023-06-13T09:33:40.041Z,27.60
2023-06-13T09:38:43.916Z,25.70
2023-06-13T09:43:46.921Z,25.80
2023-06-13T09:48:49.418Z,26.40
2023-06-13T09:53:52.637Z,29.00
2023-06-13T09:58:55.116Z,27.50
2023-06-13T10:03:58.065Z,24.50
2023-06-13T10:09:00.615Z,26.80
2023-06-13T10:14:12.098Z,24.10
2023-06-13T10:19:20.963Z,25.10
2023-06-13T10:24:26.711Z,25.80
2023-06-13T10:29:47.572Z,27.40
2023-06-13T10:35:04.220Z,23.30
2023-06-13T10:40:38.541Z,27.70
2023-06-13T10:45:45.145Z,25.70
2023-06-13T10:50:49.528Z,24.00
2023-06-13T10:55:52.104Z,25.10
2023-06-13T11:00:54.738Z,27.80
2023-06-13T11:05:57.387Z,25.00
2023-06-13T11:11:00.036Z,26.70
2023-06-13T11:16:38.705Z,30.00
2023-06-13T11:21:47.602Z,26.00
2023-06-13T11:26:50.182Z,27.20
2023-06-13T11:31:54.388Z,27.40
2023-06-13T11:37:03.557Z,26.60
2023-06-13T11:42:07.862Z,28.40
2023-06-13T11:47:12.865Z,30.00
2023-06-13T11:52:16.554Z,27.20
2023-06-13T11:57:19.805Z,28.80
2023-06-13T12:02:22.512Z,27.10
2023-06-13T12:07:25.175Z,29.40
2023-06-13T12:12:28.876Z,28.60
2023-06-13T12:17:32.209Z,28.00
2023-06-13T12:22:34.788Z,27.60
2023-06-13T12:27:38.448Z,27.80
2023-06-13T12:32:45.083Z,30.00
2023-06-13T12:38:00.301Z,30.30
2023-06-13T12:43:03.988Z,28.90
2023-06-13T12:48:06.589Z,32.30
2023-06-13T12:53:10.020Z,30.60
2023-06-13T12:58:27.902Z,28.10
2023-06-13T13:03:31.996Z,29.30
2023-06-13T13:08:35.678Z,27.40
2023-06-13T13:13:38.329Z,28.60
2023-06-13T13:18:41.196Z,27.90
2023-06-13T13:23:43.800Z,29.30
2023-06-13T13:28:46.438Z,31.00
2023-06-13T13:33:48.994Z,33.30
2023-06-13T13:38:51.656Z,32.00
2023-06-13T13:43:57.333Z,30.10
2023-06-13T13:49:00.354Z,30.70
2023-06-13T13:54:03.583Z,31.90
2023-06-13T13:59:06.472Z,31.90
2023-06-13T14:04:09.082Z,29.60
2023-06-13T14:09:14.282Z,31.50
2023-06-13T14:14:16.852Z,29.80
2023-06-13T14:19:19.408Z,32.10
2023-06-13T14:24:22.257Z,30.10
2023-06-13T14:29:24.986Z,35.30
2023-06-13T14:34:30.197Z,31.30
2023-06-13T14:39:33.089Z,29.50
2023-06-13T14:44:35.914Z,30.50
2023-06-13T14:49:38.581Z,32.00
2023-06-13T14:54:41.117Z,28.30
2023-06-13T14:59:43.647Z,29.40
2023-06-13T15:04:46.269Z,34.60
2023-06-13T15:09:48.947Z,33.10
2023-06-13T15:14:51.683Z,31.10
2023-06-13T15:19:54.399Z,31.00
2023-06-13T15:24:57.152Z,32.10
2023-06-13T15:30:01.379Z,31.60
2023-06-13T15:35:04.451Z,31.60
2023-06-13T15:40:07.809Z,31.60
2023-06-13T15:45:11.075Z,32.60
2023-06-13T15:50:13.790Z,32.50
2023-06-13T15:55:16.598Z,31.50
2023-06-13T16:00:22.404Z,30.80
2023-06-13T16:05:25.059Z,31.30
2023-06-13T16:10:27.889Z,32.40
2023-06-13T16:15:32.924Z,31.40
2023-06-13T16:20:35.449Z,32.90
2023-06-13T16:25:38.041Z,32.60
2023-06-13T16:30:41.092Z,34.00
2023-06-13T16:35:43.735Z,32.30
2023-06-13T16:40:46.331Z,29.00
2023-06-13T16:45:49.008Z,31.90
2023-06-13T16:50:51.565Z,30.90
2023-06-13T16:55:54.124Z,27.30
2023-06-13T17:00:58.307Z,30.70
2023-06-13T17:06:01.873Z,28.00
2023-06-13T17:11:04.371Z,31.00
2023-06-13T17:16:06.983Z,34.00
2023-06-13T17:21:10.025Z,35.60
2023-06-13T17:26:12.571Z,35.50
2023-06-13T17:31:16.821Z,37.20
2023-06-13T17:36:20.239Z,39.00
2023-06-13T17:41:24.084Z,40.90
2023-06-13T17:46:27.582Z,45.50
2023-06-13T17:51:30.159Z,55.90
2023-06-13T17:56:33.070Z,55.50
2023-06-13T18:01:35.679Z,55.10
2023-06-13T18:06:38.391Z,51.60
2023-06-13T18:11:40.920Z,53.90
2023-06-13T18:16:43.502Z,52.50
2023-06-13T18:21:45.997Z,54.50
2023-06-13T18:26:50.078Z,49.20
2023-06-13T18:31:52.791Z,53.30
2023-06-13T18:36:55.497Z,53.70
2023-06-13T18:41:58.021Z,53.70
2023-06-13T18:47:00.671Z,53.10
2023-06-13T18:52:04.085Z,54.60
2023-06-13T18:57:06.946Z,57.70
2023-06-13T19:02:10.420Z,56.30
2023-06-13T19:07:12.910Z,54.40
2023-06-13T19:12:21.178Z,53.80
2023-06-13T19:17:24.994Z,58.30
2023-06-13T19:22:27.713Z,62.70
2023-06-13T19:27:30.467Z,62.60
2023-06-13T19:32:34.074Z,61.90
2023-06-13T19:37:37.320Z,61.80
2023-06-13T19:42:39.787Z,62.90
2023-06-13T19:47:42.634Z,65.40
2023-06-13T19:52:45.360Z,67.40
2023-06-13T19:57:47.961Z,74.30
2023-06-13T20:02:50.617Z,77.20
2023-06-13T20:07:53.534Z,82.90
2023-06-13T20:12:56.144Z,89.80
2023-06-13T20:18:00.362Z,90.90
2023-06-13T20:23:04.359Z,92.70
2023-06-13T20:28:06.941Z,95.60
2023-06-13T20:33:09.780Z,96.60
2023-06-13T20:38:12.325Z,96.90
2023-06-13T20:43:14.862Z,97.10
2023-06-13T20:48:17.885Z,97.70
2023-06-13T20:53:20.429Z,99.10
2023-06-13T20:58:23.270Z,99.70
2023-06-13T21:03:26.572Z,99.90
2023-06-13T21:08:32.640Z,99.90
2023-06-13T21:13:35.247Z,99.90
2023-06-13T21:18:37.880Z,99.90
2023-06-13T21:23:40.762Z,99.90
2023-06-13T21:28:43.221Z,99.90
2023-06-13T21:33:45.804Z,99.90
2023-06-13T21:38:48.772Z,99.90
2023-06-13T21:43:51.341Z,99.90
2023-06-13T21:48:55.832Z,99.90
2023-06-13T21:53:58.462Z,99.90
2023-06-13T21:59:01.083Z,99.90
2023-06-13T22:04:04.822Z,99.90
2023-06-13T22:09:07.890Z,99.90
2023-06-13T22:14:12.511Z,99.90
2023-06-13T22:19:15.838Z,99.90
2023-06-13T22:24:18.637Z,99.90
2023-06-13T22:29:21.918Z,99.90
2023-06-13T22:34:24.494Z,99.90
2023-06-13T22:39:27.050Z,99.90
2023-06-13T22:44:29.695Z,99.90
2023-06-13T22:49:34.405Z,99.90
2023-06-13T22:54:36.981Z,99.50
2023-06-13T22:59:39.472Z,99.90
2023-06-13T23:04:42.759Z,99.90
2023-06-13T23:09:45.243Z,99.90
2023-06-13T23:14:48.087Z,99.90
2023-06-13T23:19:54.885Z,99.90
2023-06-13T23:24:59.272Z,99.90
2023-06-13T23:30:03.652Z,99.90
2023-06-13T23:35:07.887Z,99.90
2023-06-13T23:40:15.402Z,99.90
2023-06-13T23:45:18.181Z,99.90
2023-06-13T23:50:21.375Z,99.90
2023-06-13T23:55:25.067Z,99.90
